Main page
METAR-TAF:

METAR-TAF

Airports :

Tashkent, Uzbekistan

Tashkent International Airport

latitude: 41-16N, longitude: 069-16E, elevation: 489 m

Current weather observation

The report was made 42 minutes ago, at 18:30 UTC
Wind 6 kt from the East
Temperature 19°C
Humidity 56%
Pressure 1008 hPa
Visibility 10 km or more
no clouds below 1500 m and no cumulonimbus

METAR: UTTT 231830Z 08006KT CAVOK 19/10 Q1008 R08R/CLRD70 NOSIG

Time: 00:12 (19:12 UTC)

Forecast

The report was made 2 hours and 12 minutes ago, at 17:00 UTC
Forecast valid from 23 at 18 UTC to 24 at 18 UTC
Wind 10 kt from the East/Northeast
Visibility: 7000 m
Few clouds at a height of 6000 ft, Cumulonimbus.
Scattered clouds at a height of 10000 ft
Temporary
from 23 at 18 UTC to 24 at 03 UTC
Wind 10 kt from the South/Southeast with gusts up to 20 kt
Scattered clouds at a height of 5000 ft, Cumulonimbus.

TAF: UTTT 231700Z 2318/2418 06010KT 7000 FEW060CB SCT100 TEMPO 2318/2403 16010G20KT SCT050CB

Weather observations and forecasts of more than 4000 airports (METAR and TAF reports).

The available stations are represented by yellow and red dots on the map.

Hover mouse over dot to see the name of the station.

Then click to see weather observations and forecasts.

To change the map : click on the green buttons with a black cross to zoom in, on the green button with a dash to zoom out, or on the green arrows for adjacent maps.


METAR-TAF: